sensor_id;sensor_type;location;lat;lon;timestamp;pressure;altitude;pressure_sealevel;temperature;humidity
64340;BME280;63709;53.258;-8.814;2023-01-31T00:00:25;102430.94;;;12.90;100.00
64340;BME280;63709;53.258;-8.814;2023-01-31T00:02:53;102434.25;;;12.95;100.00
64340;BME280;63709;53.258;-8.814;2023-01-31T00:05:18;102429.50;;;12.84;100.00
64340;BME280;63709;53.258;-8.814;2023-01-31T00:07:45;102422.16;;;12.88;100.00
64340;BME280;63709;53.258;-8.814;2023-01-31T00:10:11;102430.94;;;12.90;100.00
64340;BME280;63709;53.258;-8.814;2023-01-31T00:12:37;102421.88;;;12.92;100.00
64340;BME280;63709;53.258;-8.814;2023-01-31T00:15:03;102419.53;;;12.86;100.00
64340;BME280;63709;53.258;-8.814;2023-01-31T00:17:30;102424.66;;;12.91;100.00
64340;BME280;63709;53.258;-8.814;2023-01-31T00:19:56;102418.50;;;12.89;100.00
64340;BME280;63709;53.258;-8.814;2023-01-31T00:22:22;102420.06;;;12.93;100.00
64340;BME280;63709;53.258;-8.814;2023-01-31T00:24:48;102424.38;;;12.95;100.00
64340;BME280;63709;53.258;-8.814;2023-01-31T00:27:13;102425.06;;;12.99;100.00
64340;BME280;63709;53.258;-8.814;2023-01-31T00:29:39;102424.00;;;13.01;100.00
64340;BME280;63709;53.258;-8.814;2023-01-31T00:32:06;102418.84;;;12.98;100.00
64340;BME280;63709;53.258;-8.814;2023-01-31T00:34:31;102413.16;;;12.89;100.00
64340;BME280;63709;53.258;-8.814;2023-01-31T00:36:58;102417.03;;;12.99;100.00
64340;BME280;63709;53.258;-8.814;2023-01-31T00:39:24;102420.19;;;13.05;100.00
64340;BME280;63709;53.258;-8.814;2023-01-31T00:41:50;102420.66;;;12.98;100.00
64340;BME280;63709;53.258;-8.814;2023-01-31T00:44:15;102407.63;;;12.92;100.00
64340;BME280;63709;53.258;-8.814;2023-01-31T00:46:41;102416.06;;;13.00;100.00
64340;BME280;63709;53.258;-8.814;2023-01-31T00:49:08;102406.56;;;12.94;100.00
64340;BME280;63709;53.258;-8.814;2023-01-31T00:51:34;102389.59;;;12.94;100.00
64340;BME280;63709;53.258;-8.814;2023-01-31T00:53:59;102393.47;;;13.04;100.00
64340;BME280;63709;53.258;-8.814;2023-01-31T00:56:25;102385.31;;;12.91;100.00
64340;BME280;63709;53.258;-8.814;2023-01-31T00:58:52;102394.09;;;12.93;100.00
64340;BME280;63709;53.258;-8.814;2023-01-31T01:01:20;102410.19;;;12.93;100.00
64340;BME280;63709;53.258;-8.814;2023-01-31T01:03:51;102401.91;;;12.98;100.00
64340;BME280;63709;53.258;-8.814;2023-01-31T01:06:18;102406.28;;;12.99;100.00
64340;BME280;63709;53.258;-8.814;2023-01-31T01:08:44;102392.72;;;13.02;100.00
64340;BME280;63709;53.258;-8.814;2023-01-31T01:13:39;102389.94;;;13.03;100.00
64340;BME280;63709;53.258;-8.814;2023-01-31T01:16:10;102393.41;;;13.05;100.00
64340;BME280;63709;53.258;-8.814;2023-01-31T01:18:36;102393.88;;;13.12;100.00
64340;BME280;63709;53.258;-8.814;2023-01-31T01:21:08;102395.41;;;13.02;100.00
64340;BME280;63709;53.258;-8.814;2023-01-31T01:23:35;102395.00;;;13.08;100.00
64340;BME280;63709;53.258;-8.814;2023-01-31T01:26:01;102388.03;;;13.05;100.00
64340;BME280;63709;53.258;-8.814;2023-01-31T01:28:27;102387.53;;;12.99;100.00
64340;BME280;63709;53.258;-8.814;2023-01-31T01:30:53;102390.03;;;13.02;100.00
64340;BME280;63709;53.258;-8.814;2023-01-31T01:33:19;102387.66;;;13.12;100.00
64340;BME280;63709;53.258;-8.814;2023-01-31T01:35:45;102384.09;;;13.11;100.00
64340;BME280;63709;53.258;-8.814;2023-01-31T01:38:10;102382.00;;;13.16;100.00
64340;BME280;63709;53.258;-8.814;2023-01-31T01:40:37;102385.06;;;13.10;100.00
64340;BME280;63709;53.258;-8.814;2023-01-31T01:43:03;102384.09;;;13.11;100.00
64340;BME280;63709;53.258;-8.814;2023-01-31T01:45:29;102385.44;;;13.04;100.00
64340;BME280;63709;53.258;-8.814;2023-01-31T01:47:58;102390.50;;;13.08;100.00
64340;BME280;63709;53.258;-8.814;2023-01-31T01:50:29;102391.28;;;13.11;100.00
64340;BME280;63709;53.258;-8.814;2023-01-31T01:53:00;102390.03;;;13.02;100.00
64340;BME280;63709;53.258;-8.814;2023-01-31T01:57:58;102392.50;;;13.05;100.00
64340;BME280;63709;53.258;-8.814;2023-01-31T02:00:27;102406.81;;;12.90;100.00
64340;BME280;63709;53.258;-8.814;2023-01-31T02:02:55;102411.94;;;12.94;100.00
64340;BME280;63709;53.258;-8.814;2023-01-31T02:05:27;102414.69;;;12.93;100.00
64340;BME280;63709;53.258;-8.814;2023-01-31T02:07:54;102410.19;;;12.93;100.00
64340;BME280;63709;53.258;-8.814;2023-01-31T02:13:05;102425.59;;;12.90;100.00
64340;BME280;63709;53.258;-8.814;2023-01-31T02:15:31;102437.09;;;12.92;100.00
64340;BME280;63709;53.258;-8.814;2023-01-31T02:17:57;102430.94;;;12.90;100.00
64340;BME280;63709;53.258;-8.814;2023-01-31T02:23:12;102433.72;;;12.88;100.00
64340;BME280;63709;53.258;-8.814;2023-01-31T02:26:05;102446.28;;;12.88;100.00
64340;BME280;63709;53.258;-8.814;2023-01-31T02:41:27;102480.25;;;12.71;100.00
64340;BME280;63709;53.258;-8.814;2023-01-31T02:46:54;102483.72;;;12.73;100.00
64340;BME280;63709;53.258;-8.814;2023-01-31T02:52:02;102504.63;;;12.67;100.00
64340;BME280;63709;53.258;-8.814;2023-01-31T02:55:25;102510.44;;;12.59;100.00
64340;BME280;63709;53.258;-8.814;2023-01-31T02:57:50;102519.31;;;12.59;100.00
64340;BME280;63709;53.258;-8.814;2023-01-31T03:00:17;102519.00;;;12.50;100.00
64340;BME280;63709;53.258;-8.814;2023-01-31T03:02:43;102522.16;;;12.41;100.00
64340;BME280;63709;53.258;-8.814;2023-01-31T03:05:15;102516.91;;;12.39;100.00
64340;BME280;63709;53.258;-8.814;2023-01-31T03:07:41;102515.53;;;12.32;100.00
64340;BME280;63709;53.258;-8.814;2023-01-31T03:10:19;102517.41;;;12.30;100.00
64340;BME280;63709;53.258;-8.814;2023-01-31T03:18:00;102519.81;;;12.19;100.00
64340;BME280;63709;53.258;-8.814;2023-01-31T03:20:34;102517.22;;;12.17;100.00
64340;BME280;63709;53.258;-8.814;2023-01-31T03:23:13;102517.69;;;12.08;100.00
64340;BME280;63709;53.258;-8.814;2023-01-31T03:25:42;102514.97;;;12.09;100.00
64340;BME280;63709;53.258;-8.814;2023-01-31T03:28:12;102509.94;;;12.03;100.00
64340;BME280;63709;53.258;-8.814;2023-01-31T03:33:07;102513.53;;;11.86;100.00
64340;BME280;63709;53.258;-8.814;2023-01-31T03:35:35;102512.56;;;11.88;100.00
64340;BME280;63709;53.258;-8.814;2023-01-31T03:38:06;102509.41;;;11.79;100.00
64340;BME280;63709;53.258;-8.814;2023-01-31T03:40:37;102506.50;;;11.67;100.00
64340;BME280;63709;53.258;-8.814;2023-01-31T03:43:13;102502.16;;;11.64;100.00
64340;BME280;63709;53.258;-8.814;2023-01-31T03:45:56;102508.47;;;11.63;100.00
64340;BME280;63709;53.258;-8.814;2023-01-31T03:48:22;102509.81;;;11.54;100.00
64340;BME280;63709;53.258;-8.814;2023-01-31T03:50:59;102510.47;;;11.42;100.00
64340;BME280;63709;53.258;-8.814;2023-01-31T03:53:29;102516.75;;;11.41;100.00
64340;BME280;63709;53.258;-8.814;2023-01-31T03:56:01;102518.09;;;11.32;100.00
64340;BME280;63709;53.258;-8.814;2023-01-31T03:58:33;102512.78;;;11.31;100.00
64340;BME280;63709;53.258;-8.814;2023-01-31T04:01:01;102515.84;;;11.23;100.00
64340;BME280;63709;53.258;-8.814;2023-01-31T04:04:03;102516.47;;;11.11;100.00
64340;BME280;63709;53.258;-8.814;2023-01-31T04:06:20;102509.84;;;11.01;100.00
64340;BME280;63709;53.258;-8.814;2023-01-31T04:08:46;102516.09;;;11.01;100.00
64340;BME280;63709;53.258;-8.814;2023-01-31T04:11:12;102508.72;;;11.06;100.00
64340;BME280;63709;53.258;-8.814;2023-01-31T04:13:39;102507.59;;;11.10;100.00
64340;BME280;63709;53.258;-8.814;2023-01-31T04:16:05;102510.38;;;11.09;100.00
64340;BME280;63709;53.258;-8.814;2023-01-31T04:18:30;102509.66;;;11.05;100.00
64340;BME280;63709;53.258;-8.814;2023-01-31T04:20:56;102500.44;;;11.11;100.00
64340;BME280;63709;53.258;-8.814;2023-01-31T04:23:23;102491.34;;;11.15;100.00
64340;BME280;63709;53.258;-8.814;2023-01-31T04:25:54;102488.91;;;11.10;100.00
64340;BME280;63709;53.258;-8.814;2023-01-31T04:28:20;102486.06;;;11.13;100.00
64340;BME280;63709;53.258;-8.814;2023-01-31T04:30:50;102485.22;;;11.13;100.00
64340;BME280;63709;53.258;-8.814;2023-01-31T04:35:45;102491.97;;;11.20;100.00
64340;BME280;63709;53.258;-8.814;2023-01-31T04:38:11;102500.63;;;11.25;100.00
64340;BME280;63709;53.258;-8.814;2023-01-31T04:40:38;102495.03;;;11.30;100.00
64340;BME280;63709;53.258;-8.814;2023-01-31T04:43:03;102494.78;;;11.34;100.00
64340;BME280;63709;53.258;-8.814;2023-01-31T04:45:29;102491.97;;;11.37;100.00
64340;BME280;63709;53.258;-8.814;2023-01-31T04:47:55;102492.44;;;11.46;100.00
64340;BME280;63709;53.258;-8.814;2023-01-31T04:50:22;102484.97;;;11.52;100.00
64340;BME280;63709;53.258;-8.814;2023-01-31T04:52:48;102491.97;;;11.55;100.00
64340;BME280;63709;53.258;-8.814;2023-01-31T04:55:14;102500.78;;;11.57;100.00
64340;BME280;63709;53.258;-8.814;2023-01-31T04:57:39;102494.75;;;11.53;100.00
64340;BME280;63709;53.258;-8.814;2023-01-31T05:00:05;102503.69;;;11.52;100.00
64340;BME280;63709;53.258;-8.814;2023-01-31T05:02:31;102503.78;;;11.51;100.00
64340;BME280;63709;53.258;-8.814;2023-01-31T05:04:57;102496.22;;;11.42;100.00
64340;BME280;63709;53.258;-8.814;2023-01-31T05:07:22;102487.97;;;11.46;100.00
64340;BME280;63709;53.258;-8.814;2023-01-31T05:09:48;102499.53;;;11.47;100.00
64340;BME280;63709;53.258;-8.814;2023-01-31T05:12:14;102494.44;;;11.42;100.00
64340;BME280;63709;53.258;-8.814;2023-01-31T05:14:39;102494.50;;;11.41;100.00
64340;BME280;63709;53.258;-8.814;2023-01-31T05:17:06;102502.06;;;11.50;100.00
64340;BME280;63709;53.258;-8.814;2023-01-31T05:19:31;102503.94;;;11.48;100.00
64340;BME280;63709;53.258;-8.814;2023-01-31T05:21:57;102501.97;;;11.51;100.00
64340;BME280;63709;53.258;-8.814;2023-01-31T05:24:27;102500.22;;;11.50;100.00
64340;BME280;63709;53.258;-8.814;2023-01-31T05:26:54;102505.59;;;11.50;100.00
64340;BME280;63709;53.258;-8.814;2023-01-31T05:29:23;102505.34;;;11.55;100.00
64340;BME280;63709;53.258;-8.814;2023-01-31T05:31:50;102501.66;;;11.57;100.00
64340;BME280;63709;53.258;-8.814;2023-01-31T05:34:16;102512.50;;;11.54;100.00
64340;BME280;63709;53.258;-8.814;2023-01-31T05:36:42;102509.56;;;11.59;100.00
64340;BME280;63709;53.258;-8.814;2023-01-31T05:39:08;102518.31;;;11.62;100.00
64340;BME280;63709;53.258;-8.814;2023-01-31T05:41:33;102516.19;;;11.69;100.00
64340;BME280;63709;53.258;-8.814;2023-01-31T05:43:59;102509.88;;;11.70;100.00
64340;BME280;63709;53.258;-8.814;2023-01-31T05:46:24;102518.38;;;11.78;100.00
64340;BME280;63709;53.258;-8.814;2023-01-31T05:48:51;102515.09;;;11.91;100.00
64340;BME280;63709;53.258;-8.814;2023-01-31T05:51:17;102523.56;;;11.99;100.00
64340;BME280;63709;53.258;-8.814;2023-01-31T05:53:42;102518.63;;;11.91;100.00
64340;BME280;63709;53.258;-8.814;2023-01-31T05:56:07;102519.22;;;11.96;100.00
64340;BME280;63709;53.258;-8.814;2023-01-31T05:58:33;102523.72;;;11.96;100.00
64340;BME280;63709;53.258;-8.814;2023-01-31T06:00:59;102529.06;;;11.96;100.00
64340;BME280;63709;53.258;-8.814;2023-01-31T06:03:24;102524.03;;;11.90;100.00
64340;BME280;63709;53.258;-8.814;2023-01-31T06:05:50;102512.25;;;11.76;100.00
64340;BME280;63709;53.258;-8.814;2023-01-31T06:08:16;102510.59;;;11.91;100.00
64340;BME280;63709;53.258;-8.814;2023-01-31T06:10:43;102515.72;;;11.61;100.00
64340;BME280;63709;53.258;-8.814;2023-01-31T06:13:08;102518.47;;;11.77;100.00
64340;BME280;63709;53.258;-8.814;2023-01-31T06:15:34;102526.19;;;11.66;100.00
64340;BME280;63709;53.258;-8.814;2023-01-31T06:17:59;102532.84;;;11.74;100.00
64340;BME280;63709;53.258;-8.814;2023-01-31T06:20:25;102534.09;;;11.67;100.00
64340;BME280;63709;53.258;-8.814;2023-01-31T06:22:51;102534.75;;;11.72;100.00
64340;BME280;63709;53.258;-8.814;2023-01-31T06:25:17;102534.44;;;11.61;100.00
64340;BME280;63709;53.258;-8.814;2023-01-31T06:27:43;102541.81;;;11.56;100.00
64340;BME280;63709;53.258;-8.814;2023-01-31T06:30:09;102551.41;;;11.60;100.00
64340;BME280;63709;53.258;-8.814;2023-01-31T06:32:36;102557.16;;;11.52;100.00
64340;BME280;63709;53.258;-8.814;2023-01-31T06:35:04;102571.84;;;11.26;100.00
64340;BME280;63709;53.258;-8.814;2023-01-31T06:37:30;102568.63;;;11.37;100.00
64340;BME280;63709;53.258;-8.814;2023-01-31T06:39:56;102579.03;;;11.43;100.00
64340;BME280;63709;53.258;-8.814;2023-01-31T06:42:22;102585.16;;;11.45;100.00
64340;BME280;63709;53.258;-8.814;2023-01-31T06:44:47;102581.63;;;11.45;100.00
64340;BME280;63709;53.258;-8.814;2023-01-31T06:47:13;102584.06;;;11.49;100.00
64340;BME280;63709;53.258;-8.814;2023-01-31T06:49:39;102579.28;;;11.38;100.00
64340;BME280;63709;53.258;-8.814;2023-01-31T06:52:07;102581.69;;;11.60;100.00
64340;BME280;63709;53.258;-8.814;2023-01-31T06:54:33;102577.22;;;11.44;100.00
64340;BME280;63709;53.258;-8.814;2023-01-31T06:57:00;102572.75;;;11.44;100.00
64340;BME280;63709;53.258;-8.814;2023-01-31T06:59:26;102569.50;;;11.37;100.00
64340;BME280;63709;53.258;-8.814;2023-01-31T07:01:51;102584.81;;;11.34;100.00
64340;BME280;63709;53.258;-8.814;2023-01-31T07:04:17;102576.91;;;11.32;100.00
64340;BME280;63709;53.258;-8.814;2023-01-31T07:06:43;102572.66;;;11.28;100.00
64340;BME280;63709;53.258;-8.814;2023-01-31T07:09:10;102584.59;;;11.21;100.00
64340;BME280;63709;53.258;-8.814;2023-01-31T07:11:36;102590.16;;;11.17;100.00
64340;BME280;63709;53.258;-8.814;2023-01-31T07:14:01;102580.25;;;11.19;100.00
64340;BME280;63709;53.258;-8.814;2023-01-31T07:16:27;102581.34;;;11.14;100.00
64340;BME280;63709;53.258;-8.814;2023-01-31T07:18:53;102583.06;;;11.15;100.00
64340;BME280;63709;53.258;-8.814;2023-01-31T07:21:19;102589.50;;;11.11;100.00
64340;BME280;63709;53.258;-8.814;2023-01-31T07:23:44;102599.19;;;11.14;100.00
64340;BME280;63709;53.258;-8.814;2023-01-31T07:26:12;102599.56;;;11.06;100.00
64340;BME280;63709;53.258;-8.814;2023-01-31T07:28:37;102602.72;;;11.14;100.00
64340;BME280;63709;53.258;-8.814;2023-01-31T07:31:06;102601.00;;;11.13;100.00
64340;BME280;63709;53.258;-8.814;2023-01-31T07:36:04;102611.59;;;11.15;100.00
64340;BME280;63709;53.258;-8.814;2023-01-31T07:38:31;102619.72;;;11.13;100.00
64340;BME280;63709;53.258;-8.814;2023-01-31T07:41:00;102624.06;;;11.16;100.00
64340;BME280;63709;53.258;-8.814;2023-01-31T07:43:27;102626.63;;;11.18;100.00
64340;BME280;63709;53.258;-8.814;2023-01-31T07:45:53;102630.69;;;11.07;100.00
64340;BME280;63709;53.258;-8.814;2023-01-31T07:48:20;102635.03;;;11.10;100.00
64340;BME280;63709;53.258;-8.814;2023-01-31T07:50:56;102641.88;;;10.97;100.00
64340;BME280;63709;53.258;-8.814;2023-01-31T07:53:22;102646.66;;;11.09;100.00
64340;BME280;63709;53.258;-8.814;2023-01-31T07:55:48;102638.75;;;11.25;100.00
64340;BME280;63709;53.258;-8.814;2023-01-31T07:58:14;102634.56;;;11.19;100.00
64340;BME280;63709;53.258;-8.814;2023-01-31T08:00:40;102642.44;;;11.22;100.00
64340;BME280;63709;53.258;-8.814;2023-01-31T08:03:25;102639.63;;;11.25;100.00
64340;BME280;63709;53.258;-8.814;2023-01-31T08:06:07;102632.63;;;11.23;100.00
64340;BME280;63709;53.258;-8.814;2023-01-31T08:08:34;102636.66;;;11.31;100.00
64340;BME280;63709;53.258;-8.814;2023-01-31T08:11:00;102639.47;;;11.28;100.00
64340;BME280;63709;53.258;-8.814;2023-01-31T08:13:25;102630.38;;;11.32;100.00
64340;BME280;63709;53.258;-8.814;2023-01-31T08:15:52;102637.81;;;11.26;100.00
64340;BME280;63709;53.258;-8.814;2023-01-31T08:18:18;102633.34;;;11.26;100.00
64340;BME280;63709;53.258;-8.814;2023-01-31T08:20:47;102629.53;;;11.13;100.00
64340;BME280;63709;53.258;-8.814;2023-01-31T08:23:13;102637.69;;;11.10;100.00
64340;BME280;63709;53.258;-8.814;2023-01-31T08:25:39;102640.38;;;11.10;100.00
64340;BME280;63709;53.258;-8.814;2023-01-31T08:28:04;102651.84;;;11.12;100.00
64340;BME280;63709;53.258;-8.814;2023-01-31T08:30:30;102654.44;;;11.13;100.00
64340;BME280;63709;53.258;-8.814;2023-01-31T08:32:56;102656.13;;;11.16;100.00
64340;BME280;63709;53.258;-8.814;2023-01-31T08:35:23;102652.38;;;11.20;100.00
64340;BME280;63709;53.258;-8.814;2023-01-31T08:37:50;102655.81;;;11.22;100.00
64340;BME280;63709;53.258;-8.814;2023-01-31T08:42:52;102666.81;;;11.16;100.00
64340;BME280;63709;53.258;-8.814;2023-01-31T08:45:19;102671.59;;;11.09;100.00
64340;BME280;63709;53.258;-8.814;2023-01-31T08:47:45;102676.56;;;11.17;100.00
64340;BME280;63709;53.258;-8.814;2023-01-31T08:50:11;102678.94;;;11.04;100.00
64340;BME280;63709;53.258;-8.814;2023-01-31T08:52:36;102682.19;;;11.11;100.00
64340;BME280;63709;53.258;-8.814;2023-01-31T08:55:02;102682.31;;;11.08;100.00
64340;BME280;63709;53.258;-8.814;2023-01-31T08:57:33;102681.47;;;11.07;100.00
64340;BME280;63709;53.258;-8.814;2023-01-31T09:00:00;102679.59;;;11.09;100.00
64340;BME280;63709;53.258;-8.814;2023-01-31T09:02:26;102689.06;;;11.17;100.00
64340;BME280;63709;53.258;-8.814;2023-01-31T09:04:51;102693.25;;;11.03;100.00
64340;BME280;63709;53.258;-8.814;2023-01-31T09:07:16;102689.78;;;11.20;100.00
64340;BME280;63709;53.258;-8.814;2023-01-31T09:09:47;102690.19;;;11.11;100.00
64340;BME280;63709;53.258;-8.814;2023-01-31T09:12:13;102693.81;;;11.10;100.00
64340;BME280;63709;53.258;-8.814;2023-01-31T09:14:40;102693.88;;;11.08;100.00
64340;BME280;63709;53.258;-8.814;2023-01-31T09:17:06;102697.13;;;11.15;100.00
64340;BME280;63709;53.258;-8.814;2023-01-31T09:19:32;102705.25;;;11.13;100.00
64340;BME280;63709;53.258;-8.814;2023-01-31T09:22:00;102704.94;;;11.01;100.00
64340;BME280;63709;53.258;-8.814;2023-01-31T09:24:26;102710.84;;;11.07;100.00
64340;BME280;63709;53.258;-8.814;2023-01-31T09:26:51;102700.16;;;10.88;100.00
64340;BME280;63709;53.258;-8.814;2023-01-31T09:29:20;102709.72;;;11.13;100.00
64340;BME280;63709;53.258;-8.814;2023-01-31T09:31:49;102713.09;;;10.98;100.00
64340;BME280;63709;53.258;-8.814;2023-01-31T09:34:15;102720.81;;;11.04;100.00
64340;BME280;63709;53.258;-8.814;2023-01-31T09:36:43;102720.22;;;10.97;100.00
64340;BME280;63709;53.258;-8.814;2023-01-31T09:39:09;102728.47;;;10.93;100.00
64340;BME280;63709;53.258;-8.814;2023-01-31T09:44:03;102731.38;;;11.07;100.00
64340;BME280;63709;53.258;-8.814;2023-01-31T09:46:31;102732.31;;;11.25;100.00
64340;BME280;63709;53.258;-8.814;2023-01-31T09:49:02;102724.00;;;11.31;100.00
64340;BME280;63709;53.258;-8.814;2023-01-31T09:51:31;102734.69;;;11.31;100.00
64340;BME280;63709;53.258;-8.814;2023-01-31T09:53:58;102741.47;;;11.38;100.00
64340;BME280;63709;53.258;-8.814;2023-01-31T09:59:09;102750.53;;;11.54;100.00
64340;BME280;63709;53.258;-8.814;2023-01-31T10:04:34;102769.16;;;11.56;100.00
64340;BME280;63709;53.258;-8.814;2023-01-31T10:07:12;102779.59;;;11.62;100.00
64340;BME280;63709;53.258;-8.814;2023-01-31T10:09:41;102778.50;;;11.66;100.00
64340;BME280;63709;53.258;-8.814;2023-01-31T10:14:47;102788.69;;;11.77;100.00
64340;BME280;63709;53.258;-8.814;2023-01-31T10:20:05;102807.13;;;11.83;100.00
64340;BME280;63709;53.258;-8.814;2023-01-31T10:25:26;102820.16;;;11.72;100.00
64340;BME280;63709;53.258;-8.814;2023-01-31T10:27:55;102801.09;;;11.78;100.00
64340;BME280;63709;53.258;-8.814;2023-01-31T10:30:24;102791.72;;;11.69;100.00
64340;BME280;63709;53.258;-8.814;2023-01-31T10:33:06;102792.16;;;11.60;100.00
64340;BME280;63709;53.258;-8.814;2023-01-31T10:35:37;102786.31;;;11.52;100.00
64340;BME280;63709;53.258;-8.814;2023-01-31T10:38:25;102785.31;;;11.35;100.00
64340;BME280;63709;53.258;-8.814;2023-01-31T10:40:55;102791.22;;;11.42;100.00
64340;BME280;63709;53.258;-8.814;2023-01-31T10:43:30;102785.88;;;11.42;100.00
64340;BME280;63709;53.258;-8.814;2023-01-31T10:45:58;102786.44;;;11.30;100.00
64340;BME280;63709;53.258;-8.814;2023-01-31T10:48:30;102781.94;;;11.30;100.00
64340;BME280;63709;53.258;-8.814;2023-01-31T10:51:07;102784.78;;;11.27;100.00
64340;BME280;63709;53.258;-8.814;2023-01-31T10:56:27;102791.38;;;11.39;100.00
64340;BME280;63709;53.258;-8.814;2023-01-31T10:58:55;102796.94;;;11.53;100.00
64340;BME280;63709;53.258;-8.814;2023-01-31T11:01:22;102787.31;;;11.68;100.00
64340;BME280;63709;53.258;-8.814;2023-01-31T11:03:49;102794.09;;;11.75;100.00
64340;BME280;63709;53.258;-8.814;2023-01-31T11:06:15;102792.22;;;11.96;100.00
64340;BME280;63709;53.258;-8.814;2023-01-31T11:08:45;102788.38;;;12.02;100.00
64340;BME280;63709;53.258;-8.814;2023-01-31T11:11:12;102790.16;;;12.01;100.00
64340;BME280;63709;53.258;-8.814;2023-01-31T11:13:40;102786.97;;;12.12;100.00
64340;BME280;63709;53.258;-8.814;2023-01-31T11:16:08;102788.50;;;12.52;100.00
64340;BME280;63709;53.258;-8.814;2023-01-31T11:18:36;102795.22;;;12.61;100.00
64340;BME280;63709;53.258;-8.814;2023-01-31T11:21:02;102792.84;;;12.55;100.00
64340;BME280;63709;53.258;-8.814;2023-01-31T11:23:29;102799.34;;;12.49;100.00
64340;BME280;63709;53.258;-8.814;2023-01-31T11:25:55;102792.19;;;12.32;100.00
64340;BME280;63709;53.258;-8.814;2023-01-31T11:30:49;102800.25;;;11.96;100.00
64340;BME280;63709;53.258;-8.814;2023-01-31T11:38:29;102806.59;;;11.94;100.00
64340;BME280;63709;53.258;-8.814;2023-01-31T11:40:54;102797.66;;;11.76;100.00
64340;BME280;63709;53.258;-8.814;2023-01-31T11:43:23;102792.06;;;11.80;100.00
64340;BME280;63709;53.258;-8.814;2023-01-31T11:48:22;102796.50;;;11.62;100.00
64340;BME280;63709;53.258;-8.814;2023-01-31T11:53:21;102801.56;;;11.69;100.00
64340;BME280;63709;53.258;-8.814;2023-01-31T11:55:50;102799.53;;;11.93;100.00
64340;BME280;63709;53.258;-8.814;2023-01-31T11:58:22;102803.50;;;12.03;100.00
64340;BME280;63709;53.258;-8.814;2023-01-31T12:00:56;102805.50;;;12.17;100.00
64340;BME280;63709;53.258;-8.814;2023-01-31T12:03:23;102794.72;;;12.35;100.00
64340;BME280;63709;53.258;-8.814;2023-01-31T12:05:49;102788.59;;;12.51;100.00
64340;BME280;63709;53.258;-8.814;2023-01-31T12:08:34;102787.31;;;12.58;100.00
64340;BME280;63709;53.258;-8.814;2023-01-31T12:13:50;102795.91;;;12.65;100.00
64340;BME280;63709;53.258;-8.814;2023-01-31T12:16:20;102786.69;;;12.53;100.00
64340;BME280;63709;53.258;-8.814;2023-01-31T12:21:43;102799.75;;;12.59;100.00
64340;BME280;63709;53.258;-8.814;2023-01-31T12:24:17;102810.47;;;12.59;100.00
64340;BME280;63709;53.258;-8.814;2023-01-31T12:26:54;102821.44;;;12.54;100.00
64340;BME280;63709;53.258;-8.814;2023-01-31T12:29:38;102819.63;;;12.55;100.00
64340;BME280;63709;53.258;-8.814;2023-01-31T12:32:22;102815.84;;;12.59;100.00
64340;BME280;63709;53.258;-8.814;2023-01-31T12:35:03;102805.03;;;12.60;100.00
64340;BME280;63709;53.258;-8.814;2023-01-31T12:37:43;102796.63;;;12.68;100.00
64340;BME280;63709;53.258;-8.814;2023-01-31T12:42:53;102797.63;;;13.16;100.00
64340;BME280;63709;53.258;-8.814;2023-01-31T12:46:05;102783.28;;;13.17;100.00
64340;BME280;63709;53.258;-8.814;2023-01-31T13:01:00;102752.53;;;13.24;100.00
64340;BME280;63709;53.258;-8.814;2023-01-31T13:09:16;102748.56;;;13.63;100.00
64340;BME280;63709;53.258;-8.814;2023-01-31T13:11:37;102754.00;;;13.77;100.00
64340;BME280;63709;53.258;-8.814;2023-01-31T13:14:07;102742.91;;;13.84;100.00
64340;BME280;63709;53.258;-8.814;2023-01-31T13:16:36;102747.66;;;13.78;100.00
64340;BME280;63709;53.258;-8.814;2023-01-31T13:19:04;102741.53;;;13.76;100.00
64340;BME280;63709;53.258;-8.814;2023-01-31T13:21:35;102743.84;;;13.98;100.00
64340;BME280;63709;53.258;-8.814;2023-01-31T13:24:05;102756.66;;;14.09;100.00
64340;BME280;63709;53.258;-8.814;2023-01-31T13:26:37;102752.13;;;14.10;100.00
64340;BME280;63709;53.258;-8.814;2023-01-31T13:32:01;102751.22;;;14.25;100.00
64340;BME280;63709;53.258;-8.814;2023-01-31T13:37:06;102740.09;;;14.31;100.00
64340;BME280;63709;53.258;-8.814;2023-01-31T13:39:38;102731.59;;;14.39;100.00
64340;BME280;63709;53.258;-8.814;2023-01-31T13:42:05;102734.94;;;14.12;100.00
64340;BME280;63709;53.258;-8.814;2023-01-31T13:44:30;102739.84;;;14.06;100.00
64340;BME280;63709;53.258;-8.814;2023-01-31T13:46:57;102740.66;;;13.92;100.00
64340;BME280;63709;53.258;-8.814;2023-01-31T13:51:59;102756.16;;;13.71;100.00
64340;BME280;63709;53.258;-8.814;2023-01-31T13:54:30;102757.56;;;13.62;100.00
64340;BME280;63709;53.258;-8.814;2023-01-31T13:56:58;102756.09;;;13.41;100.00
64340;BME280;63709;53.258;-8.814;2023-01-31T13:59:28;102749.06;;;13.38;100.00
64340;BME280;63709;53.258;-8.814;2023-01-31T14:01:55;102741.63;;;13.27;100.00
64340;BME280;63709;53.258;-8.814;2023-01-31T14:04:24;102743.19;;;13.31;100.00
64340;BME280;63709;53.258;-8.814;2023-01-31T14:09:24;102741.63;;;13.27;100.00
64340;BME280;63709;53.258;-8.814;2023-01-31T14:11:50;102743.09;;;13.33;100.00
64340;BME280;63709;53.258;-8.814;2023-01-31T14:16:44;102732.78;;;13.41;100.00
64340;BME280;63709;53.258;-8.814;2023-01-31T14:21:54;102735.22;;;13.46;100.00
64340;BME280;63709;53.258;-8.814;2023-01-31T14:27:10;102716.88;;;13.54;100.00
64340;BME280;63709;53.258;-8.814;2023-01-31T14:29:40;102711.84;;;13.64;100.00
64340;BME280;63709;53.258;-8.814;2023-01-31T14:32:22;102718.50;;;13.56;100.00
64340;BME280;63709;53.258;-8.814;2023-01-31T14:34:53;102708.13;;;13.66;100.00
64340;BME280;63709;53.258;-8.814;2023-01-31T14:37:37;102697.63;;;13.77;100.00